Aviation Digital Data Service (ADDS)

Output produced by TAFs form (1137 UTC 21 April 2015)
found at http://aviationweather.gov/adds/tafs/
 
KVEL 211120Z 2112/2212 29004KT P6SM SKC 
     FM211400 VRB03KT P6SM FEW150 
     FM212000 19006KT P6SM SCT150 
     FM220000 33005KT P6SM BKN120 
     FM220500 31005KT P6SM SCT120